Time;durP1;ratioP1;P1;durP2;ratioP2;P2;SDS_P1;SDS_P2;PMS_P1;PMS_P2;Temp;Humidity;BMP_temperature;BMP_pressure;BME280_temperature;BME280_humidity;BME280_pressure;Samples;Min_cycle;Max_cycle;Signal;HPM_P1;HPM_P2
2021/11/12 00:12:44;;;;;;;366.27;54.60;;;2.90;99.90;;;;;;5048908;28;20739;-70
2021/11/12 00:15:34;;;;;;;246.80;45.83;;;2.90;99.90;;;;;;5048710;28;20306;-70
2021/11/12 00:18:28;;;;;;;347.07;55.73;;;3.00;99.90;;;;;;5048226;28;20292;-70
2021/11/12 00:21:21;;;;;;;237.97;50.33;;;3.00;99.90;;;;;;5048495;28;20201;-70
2021/11/12 00:24:11;;;;;;;161.40;49.57;;;3.00;99.90;;;;;;5048192;28;20205;-70
2021/11/12 00:27:04;;;;;;;237.13;49.47;;;3.00;99.90;;;;;;5048024;28;20723;-70
2021/11/12 00:30:00;;;;;;;175.70;47.80;;;3.00;99.90;;;;;;5048246;28;20232;-70
2021/11/12 00:32:58;;;;;;;206.73;46.37;;;3.10;99.90;;;;;;5048167;28;20200;-70
2021/11/12 00:36:27;;;;;;;293.57;45.77;;;3.10;99.90;;;;;;5048401;28;20197;-70
2021/11/12 00:39:20;;;;;;;272.57;47.00;;;3.10;99.90;;;;;;5048194;28;20235;-70
2021/11/12 00:42:13;;;;;;;277.27;48.77;;;3.10;99.90;;;;;;5047735;28;20205;-70
2021/11/12 00:45:03;;;;;;;362.03;47.90;;;3.00;99.90;;;;;;5110627;28;20214;-70
2021/11/12 00:47:54;;;;;;;446.13;43.07;;;3.00;99.90;;;;;;5111238;28;20236;-69
2021/11/12 00:50:58;;;;;;;539.13;49.97;;;3.00;99.90;;;;;;5110743;28;20629;-70
2021/11/12 00:53:53;;;;;;;337.77;43.47;;;3.00;99.90;;;;;;5111312;28;20198;-70
2021/11/12 00:56:41;;;;;;;513.63;49.23;;;2.90;99.90;;;;;;5111143;28;20195;-70
2021/11/12 00:59:30;;;;;;;571.57;45.87;;;2.90;99.90;;;;;;5111607;28;20817;-70
2021/11/12 01:02:18;;;;;;;429.57;48.07;;;2.80;99.90;;;;;;5110953;28;20210;-69
2021/11/12 01:05:07;;;;;;;641.40;48.60;;;2.80;99.90;;;;;;5111442;28;20243;-70
2021/11/12 01:07:54;;;;;;;530.87;45.33;;;2.80;99.90;;;;;;5110274;28;20207;-70
2021/11/12 01:10:42;;;;;;;428.60;41.37;;;2.80;99.90;;;;;;5110179;28;20280;-70
2021/11/12 01:13:30;;;;;;;426.10;41.97;;;2.80;99.90;;;;;;5110847;28;20745;-70
2021/11/12 01:16:19;;;;;;;472.43;45.43;;;2.80;99.90;;;;;;5110906;28;20238;-70
2021/11/12 01:19:08;;;;;;;491.10;45.80;;;2.80;99.90;;;;;;5110089;28;20199;-70
2021/11/12 01:21:55;;;;;;;507.57;45.20;;;2.80;99.90;;;;;;5110674;28;20195;-70
2021/11/12 01:24:43;;;;;;;496.13;42.97;;;2.80;99.90;;;;;;5110615;28;20680;-70
2021/11/12 01:27:31;;;;;;;502.63;46.80;;;2.80;99.90;;;;;;5110183;28;20685;-70
2021/11/12 01:30:18;;;;;;;467.00;45.57;;;2.80;99.90;;;;;;5110057;28;20195;-70
2021/11/12 01:33:07;;;;;;;402.90;46.90;;;2.70;99.90;;;;;;5110376;28;20202;-70
2021/11/12 01:36:00;;;;;;;571.50;47.37;;;2.70;99.90;;;;;;5109749;28;20196;-70
2021/11/12 01:38:48;;;;;;;359.50;42.87;;;2.70;99.90;;;;;;5110363;28;20202;-70
2021/11/12 01:41:36;;;;;;;493.20;46.73;;;2.70;99.90;;;;;;5110371;28;20321;-70
2021/11/12 01:44:32;;;;;;;381.90;45.43;;;2.60;99.90;;;;;;5109667;28;20207;-70
2021/11/12 01:47:24;;;;;;;475.27;44.83;;;2.60;99.90;;;;;;5109836;28;20209;-70
2021/11/12 01:50:16;;;;;;;447.40;40.50;;;2.70;99.90;;;;;;5109907;28;20218;-70
2021/11/12 01:53:08;;;;;;;431.70;43.97;;;2.70;99.90;;;;;;5109325;28;20191;-70
2021/11/12 01:56:22;;;;;;;415.47;43.30;;;2.60;99.90;;;;;;5109145;28;20681;-70
2021/11/12 01:59:13;;;;;;;356.80;42.27;;;2.60;99.90;;;;;;5109165;28;20619;-70
2021/11/12 02:02:07;;;;;;;347.60;43.57;;;2.60;99.90;;;;;;5109836;28;20191;-70
2021/11/12 02:04:54;;;;;;;411.80;44.43;;;2.60;99.90;;;;;;5109963;28;20198;-69
2021/11/12 02:07:44;;;;;;;402.77;41.00;;;2.60;99.90;;;;;;5109900;28;20229;-70
2021/11/12 02:10:31;;;;;;;448.10;42.17;;;2.60;99.90;;;;;;5109348;28;20256;-70
2021/11/12 02:13:21;;;;;;;384.87;40.83;;;2.60;99.90;;;;;;5109782;28;20680;-70
2021/11/12 02:16:10;;;;;;;523.80;46.00;;;2.60;99.90;;;;;;5109683;28;20395;-70
2021/11/12 02:18:58;;;;;;;519.77;42.50;;;2.60;99.90;;;;;;5109599;28;20195;-70
2021/11/12 02:21:51;;;;;;;439.43;42.27;;;2.60;99.90;;;;;;5109305;28;20199;-70
2021/11/12 02:24:41;;;;;;;469.40;43.27;;;2.60;99.90;;;;;;5110214;28;20672;-70
2021/11/12 02:27:35;;;;;;;428.13;39.87;;;2.50;99.90;;;;;;5109888;28;20210;-70
2021/11/12 02:30:24;;;;;;;581.57;48.40;;;2.50;99.90;;;;;;5108764;28;20287;-70
2021/11/12 02:33:13;;;;;;;615.23;47.23;;;2.50;99.90;;;;;;5108687;28;20195;-70
2021/11/12 02:36:01;;;;;;;717.53;50.93;;;2.50;99.90;;;;;;5109740;28;20666;-70
2021/11/12 02:38:52;;;;;;;428.77;42.37;;;2.40;99.90;;;;;;5109429;28;20654;-69
2021/11/12 02:41:41;;;;;;;590.40;48.07;;;2.50;99.90;;;;;;5109446;28;20478;-70
2021/11/12 02:44:33;;;;;;;419.23;42.50;;;2.50;99.90;;;;;;5109505;28;20580;-69
2021/11/12 02:47:21;;;;;;;577.50;48.70;;;2.50;99.90;;;;;;5108591;28;20199;-69
2021/11/12 02:50:09;;;;;;;674.30;54.40;;;2.50;99.90;;;;;;5108817;28;20230;-69
2021/11/12 02:53:02;;;;;;;683.20;53.30;;;2.50;99.90;;;;;;5108543;28;20233;-70
2021/11/12 02:55:51;;;;;;;647.37;51.97;;;2.50;99.90;;;;;;5109252;28;20701;-70
2021/11/12 02:58:39;;;;;;;444.90;46.17;;;2.60;99.90;;;;;;5109387;28;20637;-69
2021/11/12 03:01:28;;;;;;;439.30;43.80;;;2.50;99.90;;;;;;5108867;28;20206;-70
2021/11/12 03:04:15;;;;;;;682.23;53.00;;;2.50;99.90;;;;;;5109806;28;20257;-69
2021/11/12 03:07:03;;;;;;;655.67;52.13;;;2.50;99.90;;;;;;5108588;28;20195;-70
2021/11/12 03:09:51;;;;;;;580.90;48.37;;;2.50;99.90;;;;;;5109041;28;20203;-69
2021/11/12 03:12:40;;;;;;;704.03;55.57;;;2.40;99.90;;;;;;5109235;28;20593;-69
2021/11/12 03:15:29;;;;;;;604.63;49.37;;;2.40;99.90;;;;;;5109180;28;20207;-69
2021/11/12 03:18:16;;;;;;;556.17;48.63;;;2.50;99.90;;;;;;5108967;28;20571;-70
2021/11/12 03:21:04;;;;;;;367.67;44.80;;;2.50;99.90;;;;;;5109142;28;20670;-70
2021/11/12 03:23:55;;;;;;;558.73;48.50;;;2.50;99.90;;;;;;5109091;28;20218;-69
2021/11/12 03:26:48;;;;;;;746.33;53.70;;;2.60;99.90;;;;;;5108490;28;20574;-69
2021/11/12 04:00:36;;;;;;;564.97;44.50;;;2.90;99.90;;;;;;5048712;28;20196;-69
2021/11/12 04:03:31;;;;;;;358.17;39.50;;;3.00;99.90;;;;;;5050910;28;20201;-69
2021/11/12 04:06:29;;;;;;;270.37;38.60;;;3.00;99.90;;;;;;5048836;28;20246;-70
2021/11/12 04:18:49;;;;;;;333.27;38.93;;;3.20;99.90;;;;;;4989967;28;20756;-69
2021/11/12 04:40:33;;;;;;;118.60;37.37;;;3.30;99.90;;;;;;5147406;27;20703;-70
2021/11/12 04:50:01;;;;;;;220.10;37.20;;;3.50;99.90;;;;;;5147342;27;20185;-70
2021/11/12 05:11:43;;;;;;;104.07;36.67;;;3.60;99.90;;;;;;5147288;27;20197;-70
2021/11/12 05:45:43;;;;;;;74.43;30.53;;;4.10;99.90;;;;;;5009165;28;20655;-69
2021/11/12 05:51:38;;;;;;;78.47;30.53;;;4.20;99.90;;;;;;4970622;28;20258;-69
2021/11/12 05:57:31;;;;;;;81.33;32.50;;;4.30;99.90;;;;;;4969933;28;20659;-69
2021/11/12 06:00:19;;;;;;;84.10;32.80;;;4.30;99.90;;;;;;4970520;28;20235;-69
2021/11/12 06:03:06;;;;;;;69.23;28.97;;;4.30;99.90;;;;;;4970617;28;20730;-69
2021/11/12 06:05:54;;;;;;;72.33;29.77;;;4.30;99.90;;;;;;4977463;28;20663;-69
2021/11/12 06:08:43;;;;;;;69.50;28.67;;;4.30;99.90;;;;;;5028266;28;20210;-69
2021/11/12 06:12:20;;;;;;;78.83;31.13;;;4.40;99.90;;;;;;5029497;28;20225;-69
2021/11/12 06:15:08;;;;;;;70.70;28.30;;;4.40;99.90;;;;;;5029300;28;20287;-70
2021/11/12 06:17:57;;;;;;;75.33;30.17;;;4.40;99.90;;;;;;5040503;28;20211;-69
2021/11/12 06:20:45;;;;;;;104.33;37.53;;;4.40;99.90;;;;;;5088891;28;20212;-69
2021/11/12 06:23:33;;;;;;;66.93;28.57;;;4.40;99.90;;;;;;5088179;28;20199;-69
2021/11/12 06:26:22;;;;;;;79.20;31.40;;;4.50;99.90;;;;;;5088531;28;20737;-70
2021/11/12 06:29:09;;;;;;;72.53;30.33;;;4.50;99.90;;;;;;5120351;27;20223;-70
2021/11/12 06:31:57;;;;;;;86.13;32.50;;;4.50;99.90;;;;;;5131489;27;20226;-69
2021/11/12 06:34:45;;;;;;;88.70;33.17;;;4.60;99.90;;;;;;5131443;27;20201;-69
2021/11/12 06:37:32;;;;;;;67.50;28.87;;;4.60;99.90;;;;;;5130595;27;20202;-69
2021/11/12 06:40:21;;;;;;;75.60;30.27;;;4.60;99.90;;;;;;5131910;27;20208;-69
2021/11/12 06:43:21;;;;;;;66.47;28.30;;;4.70;99.90;;;;;;5131209;27;20195;-70
2021/11/12 06:49:24;;;;;;;64.67;27.93;;;4.70;99.90;;;;;;5131449;27;20539;-69
2021/11/12 06:52:11;;;;;;;69.97;28.97;;;4.70;99.90;;;;;;5130366;27;20565;-69
2021/11/12 06:55:01;;;;;;;65.93;28.37;;;4.80;99.90;;;;;;5130602;27;20656;-69
2021/11/12 06:57:49;;;;;;;70.77;29.67;;;4.80;99.90;;;;;;5130686;27;20230;-69
2021/11/12 07:00:38;;;;;;;63.57;28.27;;;4.80;99.90;;;;;;5131457;27;20204;-69
2021/11/12 07:03:26;;;;;;;67.57;27.93;;;4.80;99.90;;;;;;5131025;27;20216;-69
2021/11/12 07:06:13;;;;;;;65.70;28.50;;;4.80;99.90;;;;;;5131461;27;20247;-69
2021/11/12 07:09:01;;;;;;;67.07;29.23;;;4.90;99.90;;;;;;5130472;27;20661;-69
2021/11/12 07:11:49;;;;;;;64.83;28.80;;;4.90;99.90;;;;;;5131396;27;20202;-69
2021/11/12 07:14:36;;;;;;;63.73;28.43;;;5.00;99.90;;;;;;5129800;27;20201;-69
2021/11/12 07:17:25;;;;;;;67.23;27.17;;;5.10;99.90;;;;;;5130695;27;20238;-69
2021/11/12 07:20:14;;;;;;;63.17;27.57;;;5.10;99.90;;;;;;5130082;27;20200;-70
2021/11/12 07:23:02;;;;;;;67.93;28.80;;;5.10;99.90;;;;;;5131024;27;20572;-69
2021/11/12 07:25:50;;;;;;;63.37;28.10;;;5.10;99.90;;;;;;5131199;27;20226;-69
2021/11/12 07:28:39;;;;;;;67.00;28.63;;;5.10;99.90;;;;;;5130908;27;20259;-69
2021/11/12 07:31:26;;;;;;;69.53;29.87;;;5.10;99.90;;;;;;5130107;27;20559;-70
2021/11/12 07:34:16;;;;;;;70.73;30.37;;;5.10;99.90;;;;;;5130351;27;20210;-69
2021/11/12 07:37:08;;;;;;;67.70;29.37;;;5.20;99.90;;;;;;5130085;27;20198;-69
2021/11/12 07:39:57;;;;;;;66.90;28.60;;;5.10;99.90;;;;;;5129996;27;20700;-69
2021/11/12 07:42:55;;;;;;;70.10;30.77;;;5.10;99.90;;;;;;5130127;27;20211;-69
2021/11/12 07:45:52;;;;;;;79.10;32.83;;;5.20;99.90;;;;;;5130230;27;20220;-69
2021/11/12 07:48:40;;;;;;;71.00;30.50;;;5.20;99.90;;;;;;5130585;27;20203;-69
2021/11/12 07:51:29;;;;;;;79.90;32.60;;;5.20;99.90;;;;;;5130259;27;20194;-69
2021/11/12 07:54:17;;;;;;;89.03;34.70;;;5.30;99.90;;;;;;5129598;27;20582;-69
2021/11/12 07:57:06;;;;;;;87.23;34.80;;;5.30;99.90;;;;;;5129836;27;20207;-69
2021/11/12 07:59:54;;;;;;;75.30;32.17;;;5.30;99.90;;;;;;5130331;27;20206;-69
2021/11/12 08:02:42;;;;;;;75.47;31.20;;;5.30;99.90;;;;;;5130227;27;20198;-69
2021/11/12 08:05:32;;;;;;;77.30;32.57;;;5.40;99.90;;;;;;5130375;27;20559;-69
2021/11/12 08:08:24;;;;;;;67.03;29.77;;;5.30;99.90;;;;;;5128830;27;20198;-69
2021/11/12 08:11:15;;;;;;;73.23;30.73;;;5.40;99.90;;;;;;5129756;27;20232;-69
2021/11/12 08:14:08;;;;;;;70.97;29.80;;;5.40;99.90;;;;;;5129463;27;20214;-69
2021/11/12 08:20:05;;;;;;;73.17;31.90;;;5.40;99.90;;;;;;5130747;27;20580;-69
2021/11/12 08:22:58;;;;;;;74.57;30.20;;;5.40;99.90;;;;;;5129705;27;20672;-69
2021/11/12 08:26:05;;;;;;;75.80;30.63;;;5.40;99.90;;;;;;5129577;27;20209;-69
2021/11/12 08:29:11;;;;;;;66.77;28.83;;;5.50;99.90;;;;;;5129309;27;20614;-69
2021/11/12 08:35:17;;;;;;;67.13;28.93;;;5.40;99.90;;;;;;5045720;28;20201;-69
2021/11/12 08:38:11;;;;;;;75.90;31.40;;;5.40;99.90;;;;;;5044694;28;20197;-69
2021/11/12 08:41:06;;;;;;;76.70;31.37;;;5.40;99.90;;;;;;5046029;28;20205;-69
2021/11/12 08:43:56;;;;;;;65.07;27.97;;;5.60;99.90;;;;;;5046013;28;20707;-69
2021/11/12 08:46:49;;;;;;;67.73;28.70;;;5.60;99.90;;;;;;5046039;28;20285;-69
2021/11/12 08:49:39;;;;;;;68.47;31.20;;;5.60;99.90;;;;;;5045935;28;20208;-69
2021/11/12 08:52:26;;;;;;;64.60;28.10;;;5.60;99.90;;;;;;5045652;28;20209;-69
2021/11/12 08:55:14;;;;;;;71.77;30.20;;;5.60;99.90;;;;;;5046623;28;20232;-69
2021/11/12 08:58:05;;;;;;;73.20;32.17;;;5.70;99.90;;;;;;5046000;28;20559;-70
2021/11/12 09:00:52;;;;;;;88.00;34.63;;;5.60;99.90;;;;;;5045765;28;20198;-69
2021/11/12 09:03:41;;;;;;;82.90;33.63;;;5.60;99.90;;;;;;5045721;28;20292;-71
2021/11/12 09:06:28;;;;;;;74.13;29.13;;;5.60;99.90;;;;;;5045747;28;20668;-69
2021/11/12 09:09:16;;;;;;;69.73;30.23;;;5.60;99.90;;;;;;5045718;28;20237;-69
2021/11/12 09:12:06;;;;;;;71.53;32.13;;;5.60;99.90;;;;;;5086777;28;20198;-70
2021/11/12 09:14:57;;;;;;;78.80;32.03;;;5.70;99.90;;;;;;5128516;28;20214;-69
2021/11/12 09:17:46;;;;;;;58.50;25.80;;;5.80;99.90;;;;;;5129223;27;20206;-69
2021/11/12 09:20:34;;;;;;;67.57;27.20;;;5.80;99.90;;;;;;5132670;27;20213;-69
2021/11/12 09:23:22;;;;;;;62.03;26.03;;;5.70;99.90;;;;;;5132873;27;20288;-69
2021/11/12 09:26:10;;;;;;;62.40;25.90;;;5.70;99.90;;;;;;5133177;27;20205;-69
2021/11/12 09:28:58;;;;;;;63.00;27.67;;;5.80;99.90;;;;;;5132045;27;20200;-69
2021/11/12 09:31:48;;;;;;;62.93;26.83;;;5.70;99.90;;;;;;5132728;27;20661;-70
2021/11/12 09:34:43;;;;;;;63.77;26.27;;;5.80;99.90;;;;;;5132396;27;21024;-69
2021/11/12 09:37:37;;;;;;;56.93;26.00;;;5.80;99.90;;;;;;5132560;27;20295;-69
2021/11/12 09:40:25;;;;;;;58.30;27.23;;;5.80;99.90;;;;;;5131894;27;20669;-69
2021/11/12 09:43:20;;;;;;;58.67;25.87;;;6.00;99.90;;;;;;5132559;27;20713;-69
2021/11/12 09:46:14;;;;;;;62.30;26.50;;;5.90;99.90;;;;;;5132494;27;20203;-70
2021/11/12 09:49:08;;;;;;;61.93;26.63;;;5.90;99.90;;;;;;5132719;27;20665;-69
2021/11/12 09:51:59;;;;;;;58.10;25.13;;;5.90;99.90;;;;;;5131584;27;20230;-69
2021/11/12 09:54:55;;;;;;;58.40;26.00;;;5.90;99.90;;;;;;5132169;27;20759;-69
2021/11/12 09:57:45;;;;;;;63.03;28.87;;;5.90;99.90;;;;;;5133184;27;20324;-69
2021/11/12 10:00:34;;;;;;;56.07;27.10;;;6.00;99.90;;;;;;5131601;27;20729;-69
2021/11/12 10:03:22;;;;;;;59.70;26.40;;;6.10;99.90;;;;;;5132031;27;20190;-69
2021/11/12 10:06:19;;;;;;;60.30;26.50;;;6.10;99.90;;;;;;5131791;27;20230;-69
2021/11/12 10:09:14;;;;;;;58.23;27.57;;;6.20;99.90;;;;;;5132060;27;20217;-69
2021/11/12 10:12:02;;;;;;;60.90;25.97;;;6.30;99.90;;;;;;5132016;27;20238;-69
2021/11/12 10:15:03;;;;;;;51.23;24.83;;;6.30;99.90;;;;;;5131699;27;20225;-69
2021/11/12 10:17:58;;;;;;;58.30;26.43;;;6.30;99.90;;;;;;5132852;27;20206;-69
2021/11/12 10:20:58;;;;;;;62.33;26.87;;;6.30;99.90;;;;;;5110526;28;20293;-69
2021/11/12 10:23:47;;;;;;;54.03;24.57;;;6.30;99.90;;;;;;5110988;28;20199;-69
2021/11/12 10:26:35;;;;;;;54.80;26.30;;;6.40;99.90;;;;;;5110878;28;20201;-69
2021/11/12 10:29:24;;;;;;;57.67;26.37;;;6.50;99.90;;;;;;5110520;28;20328;-69
2021/11/12 10:32:13;;;;;;;53.00;25.90;;;6.50;99.90;;;;;;5131967;27;20226;-69
2021/11/12 10:35:03;;;;;;;52.53;25.40;;;6.50;99.90;;;;;;5131580;27;20202;-70
2021/11/12 10:37:54;;;;;;;53.37;25.87;;;6.50;99.90;;;;;;5131269;27;20233;-69
2021/11/12 10:40:43;;;;;;;51.67;24.90;;;6.50;99.90;;;;;;5132230;27;20213;-69
2021/11/12 10:43:30;;;;;;;58.87;25.07;;;6.50;99.90;;;;;;5131253;27;20251;-69
2021/11/12 10:46:34;;;;;;;54.43;25.07;;;6.60;99.90;;;;;;5130957;27;20214;-69
2021/11/12 10:49:29;;;;;;;48.60;23.47;;;6.70;99.90;;;;;;5130523;27;20198;-69
2021/11/12 10:52:26;;;;;;;52.93;25.17;;;6.70;99.90;;;;;;5130762;27;20197;-70
2021/11/12 10:55:16;;;;;;;51.03;25.03;;;6.70;99.90;;;;;;5130448;27;20219;-69
2021/11/12 10:58:07;;;;;;;52.73;25.00;;;6.70;99.90;;;;;;5131642;27;20283;-69
2021/11/12 11:00:55;;;;;;;55.97;25.80;;;6.80;99.90;;;;;;5130155;27;20198;-69
2021/11/12 11:03:42;;;;;;;54.30;24.90;;;6.70;99.90;;;;;;5131598;27;20205;-70
2021/11/12 11:06:30;;;;;;;58.17;26.90;;;6.70;99.90;;;;;;5130967;27;20285;-69
2021/11/12 11:09:19;;;;;;;57.03;25.37;;;6.70;99.90;;;;;;5130427;27;20290;-69
2021/11/12 11:12:07;;;;;;;55.83;26.93;;;6.70;99.90;;;;;;5130826;27;20200;-69
2021/11/12 11:15:00;;;;;;;57.10;26.70;;;6.70;99.90;;;;;;5130500;27;20219;-69
2021/11/12 11:17:50;;;;;;;56.70;26.43;;;6.80;99.90;;;;;;5130498;27;20206;-69
2021/11/12 11:20:38;;;;;;;53.40;24.77;;;6.80;99.90;;;;;;5130251;27;20202;-69
2021/11/12 11:23:43;;;;;;;54.37;25.70;;;6.80;99.90;;;;;;5130408;27;20279;-69
2021/11/12 11:26:44;;;;;;;57.33;27.07;;;6.90;99.90;;;;;;5130489;27;20198;-69
2021/11/12 11:29:37;;;;;;;53.97;25.93;;;7.00;99.90;;;;;;5130478;27;20204;-69
2021/11/12 11:32:26;;;;;;;52.57;24.67;;;7.00;99.90;;;;;;5130866;27;20364;-69
2021/11/12 11:35:14;;;;;;;55.17;26.30;;;6.90;99.90;;;;;;5130056;27;20207;-69
2021/11/12 11:38:02;;;;;;;51.90;25.07;;;6.90;99.90;;;;;;5130214;27;20195;-70
2021/11/12 11:40:50;;;;;;;59.97;27.77;;;6.90;99.90;;;;;;5130265;27;20198;-69
2021/11/12 11:43:38;;;;;;;55.63;26.77;;;6.90;99.90;;;;;;5130002;27;20199;-69
2021/11/12 11:46:27;;;;;;;56.87;27.27;;;7.00;99.90;;;;;;5130072;27;20195;-69
2021/11/12 11:49:18;;;;;;;59.13;27.13;;;7.00;99.90;;;;;;5129912;27;20210;-69
2021/11/12 11:52:12;;;;;;;61.77;27.90;;;7.00;99.90;;;;;;5129900;27;20200;-69
2021/11/12 11:55:01;;;;;;;56.93;26.17;;;6.90;99.90;;;;;;5129625;27;20592;-69
2021/11/12 11:57:49;;;;;;;56.97;27.20;;;6.90;99.90;;;;;;5130263;27;20202;-69
2021/11/12 12:00:53;;;;;;;63.27;26.87;;;6.90;99.90;;;;;;5129140;27;20204;-69
2021/11/12 12:03:40;;;;;;;63.40;28.53;;;6.80;99.90;;;;;;5129009;27;20564;-70
2021/11/12 12:06:29;;;;;;;56.03;26.73;;;6.80;99.90;;;;;;5130518;27;20233;-69
2021/11/12 12:09:21;;;;;;;58.43;27.63;;;6.80;99.90;;;;;;5129962;27;20206;-69
2021/11/12 12:12:10;;;;;;;59.67;27.30;;;6.90;99.90;;;;;;5129603;27;20221;-70
2021/11/12 12:14:58;;;;;;;62.47;28.73;;;6.90;99.90;;;;;;5129396;27;20224;-69
2021/11/12 12:17:47;;;;;;;62.83;29.67;;;7.00;99.90;;;;;;5129533;27;20199;-69
2021/11/12 12:20:40;;;;;;;64.20;28.90;;;7.10;99.90;;;;;;5129478;27;20575;-70
2021/11/12 13:20:58;;;;;;;65.40;30.87;;;6.60;99.90;;;;;;5070424;28;20192;-69
2021/11/12 13:23:53;;;;;;;68.70;31.10;;;6.60;99.90;;;;;;5069706;28;20216;-69
2021/11/12 13:26:53;;;;;;;67.17;30.70;;;6.60;99.90;;;;;;5069813;28;20217;-69
2021/11/12 13:29:43;;;;;;;66.10;29.87;;;6.60;99.90;;;;;;5101075;27;20212;-70
2021/11/12 13:32:37;;;;;;;72.93;33.13;;;6.50;99.90;;;;;;5133466;27;20230;-69
2021/11/12 13:35:29;;;;;;;72.00;31.13;;;6.50;99.90;;;;;;5133092;27;20218;-69
2021/11/12 13:38:20;;;;;;;68.93;31.63;;;6.50;99.90;;;;;;5133204;27;20236;-69
2021/11/12 13:41:09;;;;;;;66.87;31.50;;;6.40;99.90;;;;;;5132606;27;20676;-69
2021/11/12 13:44:03;;;;;;;70.60;30.97;;;6.40;99.90;;;;;;5132998;27;20257;-69
2021/11/12 13:46:53;;;;;;;73.57;33.33;;;6.40;99.90;;;;;;5133027;27;20317;-70
2021/11/12 13:49:42;;;;;;;69.20;31.70;;;6.40;99.90;;;;;;5131593;27;20195;-69
2021/11/12 13:52:33;;;;;;;75.67;32.53;;;6.40;99.90;;;;;;5131857;27;20205;-70
2021/11/12 13:55:21;;;;;;;78.03;33.97;;;6.40;99.90;;;;;;5131902;27;20980;-69
2021/11/12 13:58:09;;;;;;;76.60;35.30;;;6.30;99.90;;;;;;5131761;27;20864;-69
2021/11/12 14:00:58;;;;;;;82.07;37.97;;;6.30;99.90;;;;;;5132114;27;20205;-69
2021/11/12 14:03:46;;;;;;;82.77;34.63;;;6.30;99.90;;;;;;5131654;27;20228;-70
2021/11/12 14:06:35;;;;;;;83.47;35.77;;;6.30;99.90;;;;;;5132023;27;20194;-69
2021/11/12 14:09:23;;;;;;;87.47;37.60;;;6.20;99.90;;;;;;5132354;27;20214;-69
2021/11/12 14:12:13;;;;;;;87.20;36.83;;;6.30;99.90;;;;;;5132515;27;20206;-69
2021/11/12 14:15:09;;;;;;;83.27;35.20;;;6.20;99.90;;;;;;5132403;27;20303;-69
2021/11/12 14:21:36;;;;;;;76.57;35.20;;;6.20;99.90;;;;;;5068597;28;20607;-69
2021/11/12 14:27:36;;;;;;;85.17;36.07;;;6.00;99.90;;;;;;4970505;28;20637;-70
2021/11/12 14:30:57;;;;;;;90.40;37.70;;;6.00;99.90;;;;;;4971049;28;20204;-70
2021/11/12 14:33:51;;;;;;;91.70;38.50;;;6.00;99.90;;;;;;4988604;28;20239;-70
2021/11/12 14:36:48;;;;;;;84.40;35.53;;;5.90;99.90;;;;;;4989797;28;20555;-69
2021/11/12 14:39:45;;;;;;;85.10;35.87;;;5.90;99.90;;;;;;4990305;28;20291;-69
2021/11/12 14:42:48;;;;;;;81.57;34.67;;;5.80;99.90;;;;;;4990340;28;20221;-69
2021/11/12 14:45:37;;;;;;;74.17;34.63;;;5.80;99.90;;;;;;4990206;28;20334;-69
2021/11/12 14:48:27;;;;;;;89.83;35.20;;;5.70;99.90;;;;;;4990064;28;20350;-69
2021/11/12 14:51:19;;;;;;;82.83;37.87;;;5.70;99.90;;;;;;4990059;28;20593;-70
2021/11/12 14:54:08;;;;;;;92.97;41.07;;;5.70;99.90;;;;;;4989758;28;20298;-69
2021/11/12 14:56:57;;;;;;;100.90;43.53;;;5.60;99.90;;;;;;4999220;28;20202;-70
2021/11/12 14:59:46;;;;;;;113.17;48.80;;;5.70;1.00;;;;;;5048153;28;20205;-69
2021/11/12 15:02:36;;;;;;;100.57;43.10;;;5.60;1.00;;;;;;5047880;28;20201;-69
2021/11/12 15:05:25;;;;;;;83.93;36.70;;;5.60;1.00;;;;;;5110468;28;20199;-70
2021/11/12 15:08:19;;;;;;;88.90;38.33;;;5.60;1.00;;;;;;5110869;28;20202;-70
2021/11/12 15:11:07;;;;;;;88.77;37.23;;;5.50;1.00;;;;;;5110294;28;20191;-69
2021/11/12 15:14:03;;;;;;;94.40;39.87;;;5.50;1.00;;;;;;5110297;28;20203;-70
2021/11/12 15:16:51;;;;;;;86.90;39.07;;;5.50;1.00;;;;;;5109968;28;20195;-70
2021/11/12 15:19:42;;;;;;;84.30;37.53;;;5.50;1.00;;;;;;5110676;28;20744;-70
2021/11/12 15:22:41;;;;;;;83.87;35.60;;;5.40;1.00;;;;;;5109895;28;20224;-70
2021/11/12 15:25:36;;;;;;;78.97;34.93;;;5.40;6.30;;;;;;5110421;28;20195;-70
2021/11/12 15:28:32;;;;;;;82.90;34.87;;;5.40;14.30;;;;;;5110296;28;20244;-70
2021/11/12 15:31:23;;;;;;;79.67;34.93;;;5.40;23.80;;;;;;5110560;28;20203;-70
2021/11/12 15:34:12;;;;;;;89.53;36.97;;;5.40;27.50;;;;;;5109512;28;20234;-70
2021/11/12 15:37:05;;;;;;;88.43;37.50;;;5.40;26.80;;;;;;5109615;28;20335;-70
2021/11/12 15:40:00;;;;;;;82.60;36.17;;;5.40;25.60;;;;;;5109323;28;20235;-69
2021/11/12 15:43:03;;;;;;;88.03;37.30;;;5.40;20.80;;;;;;5109711;28;20203;-70
2021/11/12 15:45:56;;;;;;;101.77;39.37;;;5.40;19.90;;;;;;5109712;28;20653;-70
2021/11/12 15:48:48;;;;;;;96.40;38.57;;;5.40;26.70;;;;;;5110231;28;20304;-70
2021/11/12 15:51:38;;;;;;;86.37;37.37;;;5.50;26.10;;;;;;5109904;28;20200;-70
2021/11/12 15:54:37;;;;;;;106.43;42.23;;;5.40;23.40;;;;;;5109648;28;20223;-70
2021/11/12 16:00:50;;;;;;;86.90;39.00;;;5.50;18.40;;;;;;5109354;28;20183;-69
2021/11/12 16:07:02;;;;;;;100.07;39.70;;;5.50;25.30;;;;;;5109956;28;20633;-70
2021/11/12 16:10:04;;;;;;;111.43;40.93;;;5.50;24.70;;;;;;5109397;28;20208;-70
2021/11/12 16:12:54;;;;;;;109.43;42.00;;;5.50;24.20;;;;;;5109081;28;20231;-70
2021/11/12 16:16:13;;;;;;;111.53;41.80;;;5.50;26.70;;;;;;5109101;28;20212;-70
2021/11/12 16:19:06;;;;;;;113.50;43.10;;;5.50;28.70;;;;;;5109114;28;20195;-70
2021/11/12 16:25:03;;;;;;;121.40;43.93;;;5.50;35.60;;;;;;5109607;28;20278;-70
2021/11/12 16:27:52;;;;;;;126.50;46.47;;;5.40;34.60;;;;;;5109493;28;20214;-70
2021/11/12 16:30:45;;;;;;;115.07;43.37;;;5.40;40.20;;;;;;5109160;28;20214;-70
2021/11/12 16:33:35;;;;;;;116.53;44.30;;;5.40;47.30;;;;;;5126614;28;20705;-69
2021/11/12 16:36:23;;;;;;;112.67;42.93;;;5.30;51.30;;;;;;5129027;28;20250;-70
2021/11/12 16:39:13;;;;;;;103.27;42.00;;;5.30;57.10;;;;;;5128754;28;20198;-70
2021/11/12 16:42:11;;;;;;;103.80;41.23;;;5.20;60.00;;;;;;5129077;28;20198;-70
2021/11/12 16:45:03;;;;;;;110.77;43.33;;;5.20;72.50;;;;;;5129851;28;20197;-70
2021/11/12 16:48:00;;;;;;;112.20;42.67;;;5.20;81.50;;;;;;5128506;28;20672;-70
2021/11/12 16:54:13;;;;;;;125.27;44.07;;;5.10;96.40;;;;;;5066060;28;20193;-69
2021/11/12 17:00:25;;;;;;;109.37;43.97;;;5.10;99.90;;;;;;5005808;28;20199;-70
2021/11/12 17:03:19;;;;;;;119.67;44.10;;;5.10;99.90;;;;;;5005987;28;20727;-69
2021/11/12 17:06:12;;;;;;;123.80;47.00;;;5.10;99.90;;;;;;5007024;28;20199;-70
2021/11/12 17:09:19;;;;;;;117.87;44.53;;;5.10;99.90;;;;;;5006407;28;20289;-69
2021/11/12 17:12:26;;;;;;;125.60;47.13;;;5.00;99.90;;;;;;5006109;28;20202;-70
2021/11/12 17:15:26;;;;;;;125.43;46.17;;;5.00;99.90;;;;;;5005854;28;20229;-70
2021/11/12 17:18:23;;;;;;;136.53;49.73;;;5.00;99.90;;;;;;5005600;28;20199;-69
2021/11/12 17:21:31;;;;;;;143.70;52.23;;;5.00;99.90;;;;;;5006102;28;20281;-70
2021/11/12 17:46:13;;;;;;;107.33;41.13;;;4.90;99.90;;;;;;5132428;27;20186;-69
2021/11/12 17:49:10;;;;;;;122.63;44.87;;;4.90;99.90;;;;;;5132378;27;20201;-70
2021/11/12 18:04:21;;;;;;;115.43;43.17;;;4.80;99.90;;;;;;5048604;28;20663;-70
2021/11/12 18:07:31;;;;;;;116.67;41.90;;;4.80;99.90;;;;;;5048464;28;20205;-70
2021/11/12 18:13:40;;;;;;;117.47;44.70;;;4.80;99.90;;;;;;5048328;28;20193;-69
2021/11/12 18:23:30;;;;;;;119.43;44.33;;;4.80;99.90;;;;;;4989443;28;20210;-70
2021/11/12 21:45:22;;;;;;;128.67;40.93;;;4.40;99.90;;;;;;5050113;28;20346;-70
2021/11/12 21:48:10;;;;;;;164.50;42.43;;;4.40;99.90;;;;;;5050303;28;20198;-69
2021/11/12 21:50:59;;;;;;;136.77;39.67;;;4.40;99.90;;;;;;5093674;27;20191;-70
2021/11/12 21:53:48;;;;;;;140.47;39.77;;;4.40;99.90;;;;;;5132288;27;20221;-70
2021/11/12 21:56:36;;;;;;;133.53;41.07;;;4.40;99.90;;;;;;5132736;27;20262;-69
2021/11/12 21:59:24;;;;;;;134.50;39.07;;;4.40;99.90;;;;;;5132896;27;20202;-69
2021/11/12 22:02:12;;;;;;;187.50;38.87;;;4.40;99.90;;;;;;5132112;27;20663;-69
2021/11/12 22:04:59;;;;;;;128.43;36.60;;;4.30;99.90;;;;;;5132061;27;20202;-70
2021/11/12 22:07:47;;;;;;;197.47;39.07;;;4.30;99.90;;;;;;5132352;27;20732;-69
2021/11/12 22:10:36;;;;;;;125.43;38.87;;;4.30;99.90;;;;;;5131858;27;20214;-70
2021/11/12 22:13:24;;;;;;;134.17;35.27;;;4.30;99.90;;;;;;5132273;27;20198;-69
2021/11/12 22:16:14;;;;;;;146.23;37.77;;;4.30;99.90;;;;;;5132367;27;20588;-69
2021/11/12 22:19:02;;;;;;;172.80;38.37;;;4.30;99.90;;;;;;5132151;27;20202;-69
2021/11/12 22:21:50;;;;;;;225.67;39.80;;;4.30;99.90;;;;;;5132322;27;20194;-69
2021/11/12 22:24:38;;;;;;;159.93;38.87;;;4.20;99.90;;;;;;5131619;27;20277;-70